sensor_id;sensor_type;location;lat;lon;timestamp;P1;durP1;ratioP1;P2;durP2;ratioP2
55328;SDS011;41205;44.264;19.884;2022-12-10T00:01:42;110.28;;;74.13;;
55328;SDS011;41205;44.264;19.884;2022-12-10T00:04:09;198.48;;;117.75;;
55328;SDS011;41205;44.264;19.884;2022-12-10T00:06:36;115.45;;;75.43;;
55328;SDS011;41205;44.264;19.884;2022-12-10T00:09:04;91.32;;;53.38;;
55328;SDS011;41205;44.264;19.884;2022-12-10T00:11:31;172.48;;;106.00;;
55328;SDS011;41205;44.264;19.884;2022-12-10T00:13:58;134.05;;;87.50;;
55328;SDS011;41205;44.264;19.884;2022-12-10T00:16:25;70.65;;;46.95;;
55328;SDS011;41205;44.264;19.884;2022-12-10T00:18:52;90.43;;;55.55;;
55328;SDS011;41205;44.264;19.884;2022-12-10T00:21:26;84.60;;;50.30;;
55328;SDS011;41205;44.264;19.884;2022-12-10T00:23:54;81.10;;;56.80;;
55328;SDS011;41205;44.264;19.884;2022-12-10T00:26:24;83.43;;;51.72;;
55328;SDS011;41205;44.264;19.884;2022-12-10T00:28:50;116.93;;;71.65;;
55328;SDS011;41205;44.264;19.884;2022-12-10T00:31:18;83.00;;;46.67;;
55328;SDS011;41205;44.264;19.884;2022-12-10T00:33:49;114.85;;;67.47;;
55328;SDS011;41205;44.264;19.884;2022-12-10T00:36:16;118.43;;;68.97;;
55328;SDS011;41205;44.264;19.884;2022-12-10T00:38:44;119.18;;;70.95;;
55328;SDS011;41205;44.264;19.884;2022-12-10T00:41:11;103.25;;;66.88;;
55328;SDS011;41205;44.264;19.884;2022-12-10T00:43:38;62.95;;;39.15;;
55328;SDS011;41205;44.264;19.884;2022-12-10T00:46:04;109.20;;;63.85;;
55328;SDS011;41205;44.264;19.884;2022-12-10T00:48:31;60.08;;;40.78;;
55328;SDS011;41205;44.264;19.884;2022-12-10T00:51:07;122.82;;;73.65;;
55328;SDS011;41205;44.264;19.884;2022-12-10T00:53:39;82.70;;;54.13;;
55328;SDS011;41205;44.264;19.884;2022-12-10T00:56:07;314.00;;;169.38;;
55328;SDS011;41205;44.264;19.884;2022-12-10T00:58:35;175.18;;;96.15;;
55328;SDS011;41205;44.264;19.884;2022-12-10T01:03:37;73.35;;;47.60;;
55328;SDS011;41205;44.264;19.884;2022-12-10T01:08:40;193.45;;;110.18;;
55328;SDS011;41205;44.264;19.884;2022-12-10T01:11:06;176.23;;;107.13;;
55328;SDS011;41205;44.264;19.884;2022-12-10T01:13:32;109.55;;;61.90;;
55328;SDS011;41205;44.264;19.884;2022-12-10T01:16:02;61.28;;;37.10;;
55328;SDS011;41205;44.264;19.884;2022-12-10T01:18:29;44.67;;;29.25;;
55328;SDS011;41205;44.264;19.884;2022-12-10T01:20:54;80.70;;;52.90;;
55328;SDS011;41205;44.264;19.884;2022-12-10T01:23:20;155.40;;;93.30;;
55328;SDS011;41205;44.264;19.884;2022-12-10T01:25:46;55.55;;;33.17;;
55328;SDS011;41205;44.264;19.884;2022-12-10T01:28:11;66.07;;;40.88;;
55328;SDS011;41205;44.264;19.884;2022-12-10T01:30:37;72.53;;;40.83;;
55328;SDS011;41205;44.264;19.884;2022-12-10T01:33:03;57.95;;;37.83;;
55328;SDS011;41205;44.264;19.884;2022-12-10T01:35:28;55.35;;;36.42;;
55328;SDS011;41205;44.264;19.884;2022-12-10T01:37:54;43.20;;;27.50;;
55328;SDS011;41205;44.264;19.884;2022-12-10T01:40:20;52.03;;;31.90;;
55328;SDS011;41205;44.264;19.884;2022-12-10T01:42:45;64.90;;;37.80;;
55328;SDS011;41205;44.264;19.884;2022-12-10T01:45:11;95.95;;;60.35;;
55328;SDS011;41205;44.264;19.884;2022-12-10T01:47:37;77.38;;;47.40;;
55328;SDS011;41205;44.264;19.884;2022-12-10T01:50:04;62.55;;;38.75;;
55328;SDS011;41205;44.264;19.884;2022-12-10T01:52:31;66.70;;;36.60;;
55328;SDS011;41205;44.264;19.884;2022-12-10T01:54:57;60.45;;;31.92;;
55328;SDS011;41205;44.264;19.884;2022-12-10T01:57:24;50.88;;;33.45;;
55328;SDS011;41205;44.264;19.884;2022-12-10T01:59:52;58.25;;;33.70;;
55328;SDS011;41205;44.264;19.884;2022-12-10T02:05:07;70.82;;;40.25;;
55328;SDS011;41205;44.264;19.884;2022-12-10T02:11:01;87.18;;;51.17;;
55328;SDS011;41205;44.264;19.884;2022-12-10T02:13:39;167.02;;;101.20;;
55328;SDS011;41205;44.264;19.884;2022-12-10T02:21:18;34.40;;;18.67;;
55328;SDS011;41205;44.264;19.884;2022-12-10T02:23:51;96.53;;;57.58;;
55328;SDS011;41205;44.264;19.884;2022-12-10T02:29:19;157.10;;;100.70;;
55328;SDS011;41205;44.264;19.884;2022-12-10T02:31:50;115.47;;;79.10;;
55328;SDS011;41205;44.264;19.884;2022-12-10T02:34:21;111.40;;;67.57;;
55328;SDS011;41205;44.264;19.884;2022-12-10T02:36:49;108.65;;;71.43;;
55328;SDS011;41205;44.264;19.884;2022-12-10T02:39:19;110.10;;;74.15;;
55328;SDS011;41205;44.264;19.884;2022-12-10T02:41:54;124.32;;;83.30;;
55328;SDS011;41205;44.264;19.884;2022-12-10T02:44:20;50.67;;;33.47;;
55328;SDS011;41205;44.264;19.884;2022-12-10T02:46:49;26.58;;;17.40;;
55328;SDS011;41205;44.264;19.884;2022-12-10T02:49:17;21.83;;;10.00;;
55328;SDS011;41205;44.264;19.884;2022-12-10T02:51:43;19.63;;;10.82;;
55328;SDS011;41205;44.264;19.884;2022-12-10T02:59:47;35.05;;;23.88;;
55328;SDS011;41205;44.264;19.884;2022-12-10T03:02:43;40.33;;;24.70;;
55328;SDS011;41205;44.264;19.884;2022-12-10T03:12:56;22.20;;;14.65;;
55328;SDS011;41205;44.264;19.884;2022-12-10T03:15:24;22.58;;;12.90;;
55328;SDS011;41205;44.264;19.884;2022-12-10T03:17:52;34.40;;;20.98;;
55328;SDS011;41205;44.264;19.884;2022-12-10T03:20:20;29.13;;;17.35;;
55328;SDS011;41205;44.264;19.884;2022-12-10T03:22:49;29.08;;;16.50;;
55328;SDS011;41205;44.264;19.884;2022-12-10T03:25:17;36.42;;;20.98;;
55328;SDS011;41205;44.264;19.884;2022-12-10T03:27:47;23.70;;;13.00;;
55328;SDS011;41205;44.264;19.884;2022-12-10T03:30:16;12.88;;;7.80;;
55328;SDS011;41205;44.264;19.884;2022-12-10T03:32:41;24.52;;;15.38;;
55328;SDS011;41205;44.264;19.884;2022-12-10T03:35:09;22.77;;;11.63;;
55328;SDS011;41205;44.264;19.884;2022-12-10T03:37:36;25.80;;;15.30;;
55328;SDS011;41205;44.264;19.884;2022-12-10T03:40:03;16.85;;;12.95;;
55328;SDS011;41205;44.264;19.884;2022-12-10T03:42:30;31.38;;;21.50;;
55328;SDS011;41205;44.264;19.884;2022-12-10T03:44:56;14.32;;;8.48;;
55328;SDS011;41205;44.264;19.884;2022-12-10T03:47:21;37.97;;;20.85;;
55328;SDS011;41205;44.264;19.884;2022-12-10T03:49:48;29.13;;;19.40;;
55328;SDS011;41205;44.264;19.884;2022-12-10T03:52:14;34.47;;;23.75;;
55328;SDS011;41205;44.264;19.884;2022-12-10T03:54:40;25.42;;;16.25;;
55328;SDS011;41205;44.264;19.884;2022-12-10T03:57:06;24.30;;;19.00;;
55328;SDS011;41205;44.264;19.884;2022-12-10T03:59:32;18.15;;;12.00;;
55328;SDS011;41205;44.264;19.884;2022-12-10T04:01:58;19.55;;;13.98;;
55328;SDS011;41205;44.264;19.884;2022-12-10T04:04:23;20.92;;;12.50;;
55328;SDS011;41205;44.264;19.884;2022-12-10T04:06:49;31.25;;;21.85;;
55328;SDS011;41205;44.264;19.884;2022-12-10T04:09:15;108.13;;;53.05;;
55328;SDS011;41205;44.264;19.884;2022-12-10T04:11:41;62.03;;;33.85;;
55328;SDS011;41205;44.264;19.884;2022-12-10T04:14:09;46.00;;;25.60;;
55328;SDS011;41205;44.264;19.884;2022-12-10T04:16:54;27.80;;;15.63;;
55328;SDS011;41205;44.264;19.884;2022-12-10T04:19:19;42.45;;;25.17;;
55328;SDS011;41205;44.264;19.884;2022-12-10T04:21:46;26.70;;;16.05;;
55328;SDS011;41205;44.264;19.884;2022-12-10T04:24:32;22.70;;;11.93;;
55328;SDS011;41205;44.264;19.884;2022-12-10T04:27:18;16.05;;;8.43;;
55328;SDS011;41205;44.264;19.884;2022-12-10T04:29:46;37.33;;;19.60;;
55328;SDS011;41205;44.264;19.884;2022-12-10T04:32:12;23.95;;;11.18;;
55328;SDS011;41205;44.264;19.884;2022-12-10T04:34:38;29.42;;;16.88;;
55328;SDS011;41205;44.264;19.884;2022-12-10T04:37:05;23.95;;;15.40;;
55328;SDS011;41205;44.264;19.884;2022-12-10T04:39:31;23.85;;;13.45;;
55328;SDS011;41205;44.264;19.884;2022-12-10T04:41:57;28.73;;;14.00;;
55328;SDS011;41205;44.264;19.884;2022-12-10T04:44:23;18.15;;;9.07;;
55328;SDS011;41205;44.264;19.884;2022-12-10T04:46:49;11.95;;;6.20;;
55328;SDS011;41205;44.264;19.884;2022-12-10T04:49:15;17.45;;;7.68;;
55328;SDS011;41205;44.264;19.884;2022-12-10T04:51:41;13.68;;;8.88;;
55328;SDS011;41205;44.264;19.884;2022-12-10T04:54:07;15.55;;;9.77;;
55328;SDS011;41205;44.264;19.884;2022-12-10T04:56:33;15.80;;;8.80;;
55328;SDS011;41205;44.264;19.884;2022-12-10T04:58:59;16.83;;;7.88;;
55328;SDS011;41205;44.264;19.884;2022-12-10T05:01:25;16.10;;;8.93;;
55328;SDS011;41205;44.264;19.884;2022-12-10T05:03:52;12.68;;;8.40;;
55328;SDS011;41205;44.264;19.884;2022-12-10T05:06:18;11.20;;;7.75;;
55328;SDS011;41205;44.264;19.884;2022-12-10T05:08:45;19.95;;;11.85;;
55328;SDS011;41205;44.264;19.884;2022-12-10T05:11:12;30.92;;;19.05;;
55328;SDS011;41205;44.264;19.884;2022-12-10T05:13:43;41.85;;;30.02;;
55328;SDS011;41205;44.264;19.884;2022-12-10T05:16:10;36.25;;;25.13;;
55328;SDS011;41205;44.264;19.884;2022-12-10T05:18:37;37.47;;;27.00;;
55328;SDS011;41205;44.264;19.884;2022-12-10T05:21:04;31.95;;;20.65;;
55328;SDS011;41205;44.264;19.884;2022-12-10T05:23:31;11.57;;;6.60;;
55328;SDS011;41205;44.264;19.884;2022-12-10T05:26:16;20.15;;;9.75;;
55328;SDS011;41205;44.264;19.884;2022-12-10T05:28:54;21.55;;;10.23;;
55328;SDS011;41205;44.264;19.884;2022-12-10T05:33:47;31.55;;;18.35;;
55328;SDS011;41205;44.264;19.884;2022-12-10T05:36:14;18.83;;;8.40;;
55328;SDS011;41205;44.264;19.884;2022-12-10T05:38:42;11.55;;;5.88;;
55328;SDS011;41205;44.264;19.884;2022-12-10T05:41:11;9.35;;;3.90;;
55328;SDS011;41205;44.264;19.884;2022-12-10T05:43:41;11.98;;;5.65;;
55328;SDS011;41205;44.264;19.884;2022-12-10T05:46:27;10.13;;;5.95;;
55328;SDS011;41205;44.264;19.884;2022-12-10T05:48:54;8.18;;;6.78;;
55328;SDS011;41205;44.264;19.884;2022-12-10T05:51:21;13.15;;;8.25;;
55328;SDS011;41205;44.264;19.884;2022-12-10T05:53:49;45.00;;;30.23;;
55328;SDS011;41205;44.264;19.884;2022-12-10T05:56:17;22.65;;;16.00;;
55328;SDS011;41205;44.264;19.884;2022-12-10T05:58:44;28.88;;;22.70;;
55328;SDS011;41205;44.264;19.884;2022-12-10T06:01:15;35.28;;;27.10;;
55328;SDS011;41205;44.264;19.884;2022-12-10T06:03:46;19.30;;;12.63;;
55328;SDS011;41205;44.264;19.884;2022-12-10T06:06:12;18.48;;;12.13;;
55328;SDS011;41205;44.264;19.884;2022-12-10T06:08:38;21.10;;;13.63;;
55328;SDS011;41205;44.264;19.884;2022-12-10T06:11:04;15.57;;;10.02;;
55328;SDS011;41205;44.264;19.884;2022-12-10T06:13:32;12.68;;;8.05;;
55328;SDS011;41205;44.264;19.884;2022-12-10T06:15:58;12.57;;;7.60;;
55328;SDS011;41205;44.264;19.884;2022-12-10T06:18:23;12.43;;;7.05;;
55328;SDS011;41205;44.264;19.884;2022-12-10T06:20:49;8.90;;;6.68;;
55328;SDS011;41205;44.264;19.884;2022-12-10T06:23:15;12.90;;;5.40;;
55328;SDS011;41205;44.264;19.884;2022-12-10T06:25:41;12.43;;;8.73;;
55328;SDS011;41205;44.264;19.884;2022-12-10T06:28:07;65.78;;;39.28;;
55328;SDS011;41205;44.264;19.884;2022-12-10T06:30:33;52.00;;;33.50;;
55328;SDS011;41205;44.264;19.884;2022-12-10T06:32:59;36.40;;;25.38;;
55328;SDS011;41205;44.264;19.884;2022-12-10T06:35:25;34.70;;;23.48;;
55328;SDS011;41205;44.264;19.884;2022-12-10T06:37:51;28.77;;;18.75;;
55328;SDS011;41205;44.264;19.884;2022-12-10T06:40:17;24.27;;;16.48;;
55328;SDS011;41205;44.264;19.884;2022-12-10T06:42:43;33.35;;;18.63;;
55328;SDS011;41205;44.264;19.884;2022-12-10T06:45:09;23.30;;;15.32;;
55328;SDS011;41205;44.264;19.884;2022-12-10T06:47:35;31.55;;;20.92;;
55328;SDS011;41205;44.264;19.884;2022-12-10T06:50:01;192.90;;;121.18;;
55328;SDS011;41205;44.264;19.884;2022-12-10T06:52:26;175.10;;;110.05;;
55328;SDS011;41205;44.264;19.884;2022-12-10T06:54:52;137.18;;;88.63;;
55328;SDS011;41205;44.264;19.884;2022-12-10T06:57:20;150.25;;;96.93;;
55328;SDS011;41205;44.264;19.884;2022-12-10T06:59:46;86.13;;;60.42;;
55328;SDS011;41205;44.264;19.884;2022-12-10T07:02:12;68.43;;;48.03;;
55328;SDS011;41205;44.264;19.884;2022-12-10T07:04:37;37.17;;;25.85;;
55328;SDS011;41205;44.264;19.884;2022-12-10T07:07:04;102.85;;;72.47;;
55328;SDS011;41205;44.264;19.884;2022-12-10T07:09:31;92.20;;;67.43;;
55328;SDS011;41205;44.264;19.884;2022-12-10T07:11:57;57.92;;;48.05;;
55328;SDS011;41205;44.264;19.884;2022-12-10T07:14:23;35.28;;;29.65;;
55328;SDS011;41205;44.264;19.884;2022-12-10T07:16:49;67.15;;;47.95;;
55328;SDS011;41205;44.264;19.884;2022-12-10T07:19:14;62.97;;;44.17;;
55328;SDS011;41205;44.264;19.884;2022-12-10T07:21:40;133.30;;;104.07;;
55328;SDS011;41205;44.264;19.884;2022-12-10T07:24:11;64.95;;;52.58;;
55328;SDS011;41205;44.264;19.884;2022-12-10T07:26:39;158.63;;;114.25;;
55328;SDS011;41205;44.264;19.884;2022-12-10T07:29:06;72.15;;;49.28;;
55328;SDS011;41205;44.264;19.884;2022-12-10T07:31:35;53.33;;;39.55;;
55328;SDS011;41205;44.264;19.884;2022-12-10T07:34:01;98.53;;;79.35;;
55328;SDS011;41205;44.264;19.884;2022-12-10T07:36:27;83.32;;;66.28;;
55328;SDS011;41205;44.264;19.884;2022-12-10T07:38:53;64.22;;;46.50;;
55328;SDS011;41205;44.264;19.884;2022-12-10T07:41:19;77.13;;;55.35;;
55328;SDS011;41205;44.264;19.884;2022-12-10T07:43:47;89.65;;;66.45;;
55328;SDS011;41205;44.264;19.884;2022-12-10T07:46:17;13.90;;;9.35;;
55328;SDS011;41205;44.264;19.884;2022-12-10T07:48:43;13.82;;;9.52;;
55328;SDS011;41205;44.264;19.884;2022-12-10T07:51:10;45.75;;;33.92;;
55328;SDS011;41205;44.264;19.884;2022-12-10T07:53:37;46.60;;;36.10;;
55328;SDS011;41205;44.264;19.884;2022-12-10T07:56:03;41.17;;;33.35;;
55328;SDS011;41205;44.264;19.884;2022-12-10T07:58:29;30.35;;;22.83;;
55328;SDS011;41205;44.264;19.884;2022-12-10T08:00:55;24.17;;;16.83;;
55328;SDS011;41205;44.264;19.884;2022-12-10T08:03:21;13.85;;;10.02;;
55328;SDS011;41205;44.264;19.884;2022-12-10T08:05:47;11.68;;;7.43;;
55328;SDS011;41205;44.264;19.884;2022-12-10T08:08:12;17.33;;;11.15;;
55328;SDS011;41205;44.264;19.884;2022-12-10T08:10:38;20.48;;;12.43;;
55328;SDS011;41205;44.264;19.884;2022-12-10T08:13:05;27.98;;;19.15;;
55328;SDS011;41205;44.264;19.884;2022-12-10T08:15:31;49.83;;;33.13;;
55328;SDS011;41205;44.264;19.884;2022-12-10T08:17:57;75.25;;;50.72;;
55328;SDS011;41205;44.264;19.884;2022-12-10T08:20:23;43.72;;;26.65;;
55328;SDS011;41205;44.264;19.884;2022-12-10T08:22:50;45.95;;;26.92;;
55328;SDS011;41205;44.264;19.884;2022-12-10T08:25:16;38.65;;;25.08;;
55328;SDS011;41205;44.264;19.884;2022-12-10T08:27:42;49.67;;;32.80;;
55328;SDS011;41205;44.264;19.884;2022-12-10T08:30:08;35.35;;;23.50;;
55328;SDS011;41205;44.264;19.884;2022-12-10T08:32:34;31.05;;;22.60;;
55328;SDS011;41205;44.264;19.884;2022-12-10T08:35:00;119.65;;;94.65;;
55328;SDS011;41205;44.264;19.884;2022-12-10T08:37:25;126.25;;;96.55;;
55328;SDS011;41205;44.264;19.884;2022-12-10T08:39:51;160.60;;;129.48;;
55328;SDS011;41205;44.264;19.884;2022-12-10T08:42:17;141.07;;;109.65;;
55328;SDS011;41205;44.264;19.884;2022-12-10T08:44:43;137.90;;;116.90;;
55328;SDS011;41205;44.264;19.884;2022-12-10T08:47:08;183.18;;;146.50;;
55328;SDS011;41205;44.264;19.884;2022-12-10T08:49:34;212.10;;;161.23;;
55328;SDS011;41205;44.264;19.884;2022-12-10T08:52:00;216.15;;;162.20;;
55328;SDS011;41205;44.264;19.884;2022-12-10T08:54:26;271.58;;;201.85;;
55328;SDS011;41205;44.264;19.884;2022-12-10T08:56:51;311.02;;;239.73;;
55328;SDS011;41205;44.264;19.884;2022-12-10T08:59:18;281.60;;;209.48;;
55328;SDS011;41205;44.264;19.884;2022-12-10T09:01:44;98.45;;;66.38;;
55328;SDS011;41205;44.264;19.884;2022-12-10T09:04:10;114.57;;;87.15;;
55328;SDS011;41205;44.264;19.884;2022-12-10T09:06:37;136.73;;;109.03;;
55328;SDS011;41205;44.264;19.884;2022-12-10T09:09:03;109.50;;;84.22;;
55328;SDS011;41205;44.264;19.884;2022-12-10T09:11:30;32.00;;;24.45;;
55328;SDS011;41205;44.264;19.884;2022-12-10T09:13:58;37.03;;;23.88;;
55328;SDS011;41205;44.264;19.884;2022-12-10T09:16:31;50.58;;;39.75;;
55328;SDS011;41205;44.264;19.884;2022-12-10T09:18:59;98.22;;;76.82;;
55328;SDS011;41205;44.264;19.884;2022-12-10T09:21:25;88.60;;;71.47;;
55328;SDS011;41205;44.264;19.884;2022-12-10T09:23:51;76.10;;;54.75;;
55328;SDS011;41205;44.264;19.884;2022-12-10T09:26:17;64.18;;;47.38;;
55328;SDS011;41205;44.264;19.884;2022-12-10T09:28:44;42.40;;;34.90;;
55328;SDS011;41205;44.264;19.884;2022-12-10T09:31:11;50.38;;;36.05;;
55328;SDS011;41205;44.264;19.884;2022-12-10T09:33:38;30.35;;;22.67;;
55328;SDS011;41205;44.264;19.884;2022-12-10T09:36:05;26.02;;;17.60;;
55328;SDS011;41205;44.264;19.884;2022-12-10T09:38:38;24.20;;;18.27;;
55328;SDS011;41205;44.264;19.884;2022-12-10T09:44:12;20.30;;;16.33;;
55328;SDS011;41205;44.264;19.884;2022-12-10T09:46:51;16.88;;;11.43;;
55328;SDS011;41205;44.264;19.884;2022-12-10T09:52:00;19.02;;;12.25;;
55328;SDS011;41205;44.264;19.884;2022-12-10T09:54:30;22.92;;;14.63;;
55328;SDS011;41205;44.264;19.884;2022-12-10T09:56:58;19.67;;;13.75;;
55328;SDS011;41205;44.264;19.884;2022-12-10T09:59:32;17.08;;;11.52;;
55328;SDS011;41205;44.264;19.884;2022-12-10T10:04:50;24.23;;;16.60;;
55328;SDS011;41205;44.264;19.884;2022-12-10T10:07:23;19.67;;;12.70;;
55328;SDS011;41205;44.264;19.884;2022-12-10T10:12:58;20.33;;;12.60;;
55328;SDS011;41205;44.264;19.884;2022-12-10T10:15:44;14.23;;;11.45;;
55328;SDS011;41205;44.264;19.884;2022-12-10T10:20:39;25.40;;;17.77;;
55328;SDS011;41205;44.264;19.884;2022-12-10T10:23:05;33.05;;;26.05;;
55328;SDS011;41205;44.264;19.884;2022-12-10T10:25:31;15.95;;;12.45;;
55328;SDS011;41205;44.264;19.884;2022-12-10T10:27:57;16.65;;;12.30;;
55328;SDS011;41205;44.264;19.884;2022-12-10T10:30:23;25.13;;;17.65;;
55328;SDS011;41205;44.264;19.884;2022-12-10T10:32:53;19.88;;;14.13;;
55328;SDS011;41205;44.264;19.884;2022-12-10T10:37:48;44.33;;;33.28;;
55328;SDS011;41205;44.264;19.884;2022-12-10T10:40:21;46.35;;;35.20;;
55328;SDS011;41205;44.264;19.884;2022-12-10T10:42:54;78.30;;;55.38;;
55328;SDS011;41205;44.264;19.884;2022-12-10T10:48:17;56.67;;;45.08;;
55328;SDS011;41205;44.264;19.884;2022-12-10T10:50:52;51.38;;;39.50;;
55328;SDS011;41205;44.264;19.884;2022-12-10T10:53:32;55.55;;;35.75;;
55328;SDS011;41205;44.264;19.884;2022-12-10T10:58:35;85.30;;;65.40;;
55328;SDS011;41205;44.264;19.884;2022-12-10T11:01:10;112.53;;;81.90;;
55328;SDS011;41205;44.264;19.884;2022-12-10T11:03:36;118.07;;;83.13;;
55328;SDS011;41205;44.264;19.884;2022-12-10T11:06:10;66.03;;;48.70;;
55328;SDS011;41205;44.264;19.884;2022-12-10T11:08:37;63.60;;;46.17;;
55328;SDS011;41205;44.264;19.884;2022-12-10T11:11:06;51.63;;;36.95;;
55328;SDS011;41205;44.264;19.884;2022-12-10T11:13:38;52.58;;;39.85;;
55328;SDS011;41205;44.264;19.884;2022-12-10T11:16:23;62.58;;;43.50;;
55328;SDS011;41205;44.264;19.884;2022-12-10T11:19:02;73.95;;;51.53;;
55328;SDS011;41205;44.264;19.884;2022-12-10T11:21:31;96.68;;;65.47;;
55328;SDS011;41205;44.264;19.884;2022-12-10T11:24:09;106.82;;;75.25;;
55328;SDS011;41205;44.264;19.884;2022-12-10T11:26:40;89.03;;;62.72;;
55328;SDS011;41205;44.264;19.884;2022-12-10T11:32:04;94.40;;;73.50;;
55328;SDS011;41205;44.264;19.884;2022-12-10T11:37:32;91.28;;;70.03;;
55328;SDS011;41205;44.264;19.884;2022-12-10T11:40:25;91.13;;;70.63;;
55328;SDS011;41205;44.264;19.884;2022-12-10T11:48:28;117.20;;;82.18;;
55328;SDS011;41205;44.264;19.884;2022-12-10T11:51:06;104.15;;;75.65;;
55328;SDS011;41205;44.264;19.884;2022-12-10T11:54:05;94.93;;;62.65;;
55328;SDS011;41205;44.264;19.884;2022-12-10T11:59:51;60.83;;;41.55;;
55328;SDS011;41205;44.264;19.884;2022-12-10T12:02:39;43.10;;;29.75;;
55328;SDS011;41205;44.264;19.884;2022-12-10T12:05:19;65.57;;;42.85;;
55328;SDS011;41205;44.264;19.884;2022-12-10T12:07:56;75.60;;;45.60;;
55328;SDS011;41205;44.264;19.884;2022-12-10T12:13:16;86.45;;;55.33;;
55328;SDS011;41205;44.264;19.884;2022-12-10T12:16:07;73.20;;;43.47;;
55328;SDS011;41205;44.264;19.884;2022-12-10T12:21:13;42.47;;;27.67;;
55328;SDS011;41205;44.264;19.884;2022-12-10T12:26:54;49.55;;;33.00;;
55328;SDS011;41205;44.264;19.884;2022-12-10T12:31:49;41.90;;;29.38;;
55328;SDS011;41205;44.264;19.884;2022-12-10T12:37:14;51.03;;;36.78;;
55328;SDS011;41205;44.264;19.884;2022-12-10T12:52:51;116.15;;;79.28;;
55328;SDS011;41205;44.264;19.884;2022-12-10T12:57:59;66.28;;;42.50;;
55328;SDS011;41205;44.264;19.884;2022-12-10T13:00:48;67.28;;;46.20;;
55328;SDS011;41205;44.264;19.884;2022-12-10T13:05:53;131.00;;;99.50;;
55328;SDS011;41205;44.264;19.884;2022-12-10T13:13:39;36.13;;;25.67;;
55328;SDS011;41205;44.264;19.884;2022-12-10T13:29:58;37.85;;;23.38;;
55328;SDS011;41205;44.264;19.884;2022-12-10T13:43:23;69.95;;;51.40;;
55328;SDS011;41205;44.264;19.884;2022-12-10T13:49:00;69.25;;;50.10;;
55328;SDS011;41205;44.264;19.884;2022-12-10T14:02:18;21.35;;;12.07;;
55328;SDS011;41205;44.264;19.884;2022-12-10T14:07:39;40.43;;;27.87;;
55328;SDS011;41205;44.264;19.884;2022-12-10T14:10:09;34.20;;;22.45;;
55328;SDS011;41205;44.264;19.884;2022-12-10T14:12:40;61.80;;;40.45;;
55328;SDS011;41205;44.264;19.884;2022-12-10T14:15:08;40.70;;;26.88;;
55328;SDS011;41205;44.264;19.884;2022-12-10T14:17:40;48.95;;;30.30;;
55328;SDS011;41205;44.264;19.884;2022-12-10T14:20:11;41.60;;;29.55;;
55328;SDS011;41205;44.264;19.884;2022-12-10T14:25:13;49.83;;;35.60;;
55328;SDS011;41205;44.264;19.884;2022-12-10T14:27:41;76.13;;;46.72;;
55328;SDS011;41205;44.264;19.884;2022-12-10T14:32:46;78.15;;;51.22;;
55328;SDS011;41205;44.264;19.884;2022-12-10T14:35:14;80.25;;;53.63;;
55328;SDS011;41205;44.264;19.884;2022-12-10T14:37:45;89.77;;;66.33;;
55328;SDS011;41205;44.264;19.884;2022-12-10T14:40:22;74.05;;;51.38;;
55328;SDS011;41205;44.264;19.884;2022-12-10T14:42:49;88.93;;;63.42;;
55328;SDS011;41205;44.264;19.884;2022-12-10T14:45:27;94.63;;;54.50;;
55328;SDS011;41205;44.264;19.884;2022-12-10T14:48:03;69.20;;;46.90;;
55328;SDS011;41205;44.264;19.884;2022-12-10T14:50:32;76.85;;;51.50;;
55328;SDS011;41205;44.264;19.884;2022-12-10T14:52:58;141.95;;;83.43;;
55328;SDS011;41205;44.264;19.884;2022-12-10T14:55:25;132.30;;;102.78;;
55328;SDS011;41205;44.264;19.884;2022-12-10T14:57:56;126.97;;;93.15;;
55328;SDS011;41205;44.264;19.884;2022-12-10T15:00:26;206.55;;;138.50;;
55328;SDS011;41205;44.264;19.884;2022-12-10T15:02:57;184.45;;;126.95;;
55328;SDS011;41205;44.264;19.884;2022-12-10T15:05:27;162.35;;;113.78;;
55328;SDS011;41205;44.264;19.884;2022-12-10T15:08:06;121.68;;;89.78;;
55328;SDS011;41205;44.264;19.884;2022-12-10T15:10:39;141.65;;;107.85;;
55328;SDS011;41205;44.264;19.884;2022-12-10T15:13:21;120.07;;;89.13;;
55328;SDS011;41205;44.264;19.884;2022-12-10T15:15:52;104.30;;;78.28;;
55328;SDS011;41205;44.264;19.884;2022-12-10T15:18:36;97.28;;;63.17;;
55328;SDS011;41205;44.264;19.884;2022-12-10T15:21:04;94.32;;;60.58;;
55328;SDS011;41205;44.264;19.884;2022-12-10T15:23:47;113.88;;;77.32;;
55328;SDS011;41205;44.264;19.884;2022-12-10T15:26:23;152.90;;;104.38;;
55328;SDS011;41205;44.264;19.884;2022-12-10T15:29:27;151.10;;;110.13;;
55328;SDS011;41205;44.264;19.884;2022-12-10T15:31:48;271.77;;;197.18;;
55328;SDS011;41205;44.264;19.884;2022-12-10T15:34:15;135.85;;;90.57;;
55328;SDS011;41205;44.264;19.884;2022-12-10T15:36:43;121.63;;;86.63;;
55328;SDS011;41205;44.264;19.884;2022-12-10T15:41:56;131.85;;;97.38;;
55328;SDS011;41205;44.264;19.884;2022-12-10T15:49:44;106.00;;;72.75;;
55328;SDS011;41205;44.264;19.884;2022-12-10T15:52:18;123.93;;;94.60;;
55328;SDS011;41205;44.264;19.884;2022-12-10T15:54:52;117.72;;;82.40;;
55328;SDS011;41205;44.264;19.884;2022-12-10T15:57:24;352.90;;;267.05;;
55328;SDS011;41205;44.264;19.884;2022-12-10T15:59:55;447.80;;;318.20;;
55328;SDS011;41205;44.264;19.884;2022-12-10T16:04:54;117.07;;;82.55;;
55328;SDS011;41205;44.264;19.884;2022-12-10T16:07:20;270.13;;;177.95;;
55328;SDS011;41205;44.264;19.884;2022-12-10T16:09:45;150.93;;;107.38;;
55328;SDS011;41205;44.264;19.884;2022-12-10T16:12:12;506.92;;;333.80;;
55328;SDS011;41205;44.264;19.884;2022-12-10T16:14:39;497.40;;;343.10;;
55328;SDS011;41205;44.264;19.884;2022-12-10T16:17:17;220.10;;;150.10;;
55328;SDS011;41205;44.264;19.884;2022-12-10T16:19:44;111.55;;;77.85;;
55328;SDS011;41205;44.264;19.884;2022-12-10T16:22:10;135.05;;;86.07;;
55328;SDS011;41205;44.264;19.884;2022-12-10T16:24:36;105.43;;;74.28;;
55328;SDS011;41205;44.264;19.884;2022-12-10T16:27:04;63.45;;;37.45;;
55328;SDS011;41205;44.264;19.884;2022-12-10T16:29:36;59.10;;;40.05;;
55328;SDS011;41205;44.264;19.884;2022-12-10T16:32:02;92.28;;;62.72;;
55328;SDS011;41205;44.264;19.884;2022-12-10T16:34:28;72.68;;;49.80;;
55328;SDS011;41205;44.264;19.884;2022-12-10T16:36:53;76.60;;;50.70;;
55328;SDS011;41205;44.264;19.884;2022-12-10T16:39:19;65.95;;;41.65;;
55328;SDS011;41205;44.264;19.884;2022-12-10T16:41:50;83.72;;;58.63;;
55328;SDS011;41205;44.264;19.884;2022-12-10T16:44:17;125.80;;;91.57;;
55328;SDS011;41205;44.264;19.884;2022-12-10T16:46:43;105.57;;;77.95;;
55328;SDS011;41205;44.264;19.884;2022-12-10T16:49:09;132.93;;;101.40;;
55328;SDS011;41205;44.264;19.884;2022-12-10T16:51:35;155.80;;;116.80;;
55328;SDS011;41205;44.264;19.884;2022-12-10T16:54:01;137.43;;;100.80;;
55328;SDS011;41205;44.264;19.884;2022-12-10T16:56:28;120.95;;;85.18;;
55328;SDS011;41205;44.264;19.884;2022-12-10T16:58:54;185.60;;;134.13;;
55328;SDS011;41205;44.264;19.884;2022-12-10T17:01:21;165.38;;;121.07;;
55328;SDS011;41205;44.264;19.884;2022-12-10T17:03:49;137.93;;;104.18;;